Time;durP1;ratioP1;P1;durP2;ratioP2;P2;SDS_P1;SDS_P2;PMS_P1;PMS_P2;Temp;Humidity;BMP_temperature;BMP_pressure;BME280_temperature;BME280_humidity;BME280_pressure;Samples;Min_cycle;Max_cycle;Signal;HPM_P1;HPM_P2
2022/07/09 00:02:19;;;;;;;0.50;0.50;;;14.50;99.90;;;;;;5036686;28;20494;-70
2022/07/09 00:05:08;;;;;;;0.50;0.50;;;14.50;99.90;;;;;;5036899;28;20438;-70
2022/07/09 00:08:04;;;;;;;0.50;0.50;;;14.50;99.90;;;;;;5036160;28;20448;-71
2022/07/09 00:10:52;;;;;;;0.70;0.57;;;14.50;99.90;;;;;;5034985;28;20420;-72
2022/07/09 00:13:42;;;;;;;0.50;0.50;;;14.40;99.90;;;;;;5035921;28;21004;-70
2022/07/09 00:16:30;;;;;;;0.40;0.40;;;14.40;99.90;;;;;;5035943;28;20878;-71
2022/07/09 00:19:18;;;;;;;0.50;0.50;;;14.40;99.90;;;;;;5035833;28;20472;-72
2022/07/09 00:22:06;;;;;;;0.40;0.40;;;14.40;99.90;;;;;;5035950;28;20413;-73
2022/07/09 00:24:54;;;;;;;0.50;0.50;;;14.20;99.90;;;;;;5034855;28;20844;-72
2022/07/09 00:27:42;;;;;;;0.40;0.40;;;14.30;99.90;;;;;;5036103;28;20497;-71
2022/07/09 00:30:32;;;;;;;0.40;0.40;;;14.30;99.90;;;;;;5035784;28;20409;-72
2022/07/09 00:33:20;;;;;;;0.60;0.60;;;14.20;99.90;;;;;;5036172;28;20436;-69
2022/07/09 00:36:08;;;;;;;0.70;0.70;;;14.10;99.90;;;;;;5038472;28;20952;-71
2022/07/09 00:38:56;;;;;;;0.50;0.50;;;14.40;99.90;;;;;;5055631;28;20833;-71
2022/07/09 00:41:45;;;;;;;0.90;0.90;;;14.10;99.90;;;;;;5056061;28;20428;-71
2022/07/09 00:44:33;;;;;;;0.50;0.50;;;14.00;99.90;;;;;;5054137;28;20420;-72
2022/07/09 00:47:22;;;;;;;1.50;0.90;;;14.00;99.90;;;;;;5055313;28;20976;-71
2022/07/09 00:50:11;;;;;;;0.50;0.50;;;13.90;99.90;;;;;;5054226;28;21005;-70
2022/07/09 00:52:59;;;;;;;0.40;0.40;;;13.90;99.90;;;;;;5054942;28;20431;-73
2022/07/09 00:55:49;;;;;;;2.40;1.90;;;13.90;99.90;;;;;;5054688;28;20474;-71
2022/07/09 00:58:37;;;;;;;0.50;0.50;;;13.80;99.90;;;;;;5062811;28;20440;-71
2022/07/09 01:01:26;;;;;;;0.50;0.50;;;13.80;99.90;;;;;;5054615;28;20515;-72
2022/07/09 01:04:15;;;;;;;0.50;0.50;;;13.70;99.90;;;;;;5054337;28;20478;-71
2022/07/09 01:07:04;;;;;;;0.40;0.40;;;13.60;99.90;;;;;;5055420;28;20416;-72
2022/07/09 01:09:52;;;;;;;0.40;0.40;;;13.60;99.90;;;;;;5054337;28;20958;-70
2022/07/09 01:12:41;;;;;;;0.50;0.50;;;13.50;99.90;;;;;;5054821;28;20428;-71
2022/07/09 01:15:29;;;;;;;0.50;0.50;;;13.50;99.90;;;;;;5054216;28;20800;-71
2022/07/09 01:18:18;;;;;;;2.73;1.10;;;13.60;99.90;;;;;;5054031;28;20466;-71
2022/07/09 01:21:07;;;;;;;0.50;0.50;;;13.40;99.90;;;;;;5054015;28;20412;-72
2022/07/09 01:23:56;;;;;;;0.50;0.50;;;13.40;99.90;;;;;;5053967;28;20435;-71
2022/07/09 01:26:44;;;;;;;0.40;0.40;;;13.40;99.90;;;;;;5054408;28;20468;-71
2022/07/09 01:29:32;;;;;;;0.50;0.50;;;13.30;99.90;;;;;;5053080;28;20838;-70
2022/07/09 01:32:20;;;;;;;0.50;0.50;;;13.30;99.90;;;;;;5054227;28;20432;-74
2022/07/09 01:35:09;;;;;;;0.60;0.60;;;13.20;99.90;;;;;;5053509;28;20482;-71
2022/07/09 01:37:58;;;;;;;0.50;0.50;;;13.20;99.90;;;;;;5053413;28;20444;-71
2022/07/09 01:40:46;;;;;;;1.27;1.17;;;13.30;99.90;;;;;;5053137;28;20456;-72
2022/07/09 01:43:35;;;;;;;0.40;0.40;;;13.30;99.90;;;;;;5054300;28;20439;-71
2022/07/09 01:46:23;;;;;;;0.40;0.40;;;13.10;99.90;;;;;;5053989;28;20432;-71
2022/07/09 01:49:12;;;;;;;0.50;0.50;;;13.10;99.90;;;;;;5049835;28;20460;-71
2022/07/09 01:52:00;;;;;;;0.93;0.93;;;13.00;99.90;;;;;;5051510;28;20412;-71
2022/07/09 01:54:49;;;;;;;0.40;0.40;;;12.90;99.90;;;;;;5053331;28;20432;-71
2022/07/09 01:57:37;;;;;;;0.50;0.50;;;13.00;99.90;;;;;;5053327;28;20832;-71
2022/07/09 02:00:27;;;;;;;0.40;0.40;;;13.10;99.90;;;;;;5054321;28;20452;-71
2022/07/09 02:03:15;;;;;;;1.17;1.10;;;13.00;99.90;;;;;;5054015;28;20444;-73
2022/07/09 02:06:04;;;;;;;0.40;0.40;;;13.10;99.90;;;;;;5052908;28;20431;-72
2022/07/09 02:08:52;;;;;;;0.40;0.40;;;13.20;99.90;;;;;;5052710;28;20984;-70
2022/07/09 02:11:42;;;;;;;0.40;0.40;;;13.40;99.90;;;;;;5052436;28;20428;-71
2022/07/09 02:14:30;;;;;;;0.50;0.50;;;13.50;99.90;;;;;;5052744;28;20518;-71
2022/07/09 02:17:19;;;;;;;0.83;0.83;;;13.70;99.90;;;;;;5051897;28;20506;-71
2022/07/09 02:20:08;;;;;;;0.50;0.50;;;13.60;99.90;;;;;;5051418;28;20468;-71
2022/07/09 02:22:57;;;;;;;1.03;1.03;;;13.60;99.90;;;;;;5051510;28;20962;-71
2022/07/09 02:25:45;;;;;;;1.33;0.60;;;13.70;99.90;;;;;;5052290;28;20428;-71
2022/07/09 02:28:35;;;;;;;0.50;0.50;;;13.70;99.90;;;;;;5051798;28;20448;-70
2022/07/09 02:31:25;;;;;;;0.40;0.40;;;13.70;99.90;;;;;;5051706;28;20416;-71
2022/07/09 02:34:13;;;;;;;0.50;0.50;;;13.70;99.90;;;;;;5052117;28;20509;-72
2022/07/09 02:37:01;;;;;;;0.43;0.43;;;13.80;99.90;;;;;;5051800;28;20944;-70
2022/07/09 02:39:49;;;;;;;0.50;0.50;;;13.80;99.90;;;;;;5052533;28;20464;-70
2022/07/09 02:42:38;;;;;;;1.83;1.30;;;13.80;99.90;;;;;;5051345;28;20519;-71
2022/07/09 02:45:27;;;;;;;0.50;0.50;;;13.80;99.90;;;;;;5052217;28;20427;-71
2022/07/09 02:48:15;;;;;;;0.40;0.40;;;13.70;99.90;;;;;;5051946;28;20968;-71
2022/07/09 02:51:04;;;;;;;0.50;0.50;;;13.70;99.90;;;;;;5051541;28;20459;-70
2022/07/09 02:53:52;;;;;;;1.57;1.57;;;13.70;99.90;;;;;;5051985;28;20439;-71
2022/07/09 02:56:40;;;;;;;0.40;0.40;;;13.70;99.90;;;;;;5051727;28;20431;-69
2022/07/09 02:59:28;;;;;;;0.70;0.70;;;13.60;99.90;;;;;;5058244;28;20452;-71
2022/07/09 03:02:18;;;;;;;1.90;1.47;;;13.60;99.90;;;;;;5051370;28;20416;-70
2022/07/09 03:05:07;;;;;;;0.50;0.50;;;13.70;99.90;;;;;;5051670;28;20428;-70
2022/07/09 03:07:55;;;;;;;0.50;0.50;;;13.70;99.90;;;;;;5051122;28;20440;-72
2022/07/09 03:10:43;;;;;;;0.40;0.40;;;13.70;99.90;;;;;;5050991;28;21055;-73
2022/07/09 03:13:31;;;;;;;0.50;0.50;;;13.70;99.90;;;;;;5052211;28;20509;-72
2022/07/09 03:16:19;;;;;;;0.40;0.40;;;13.70;99.90;;;;;;5051966;28;20440;-70
2022/07/09 03:19:09;;;;;;;0.50;0.50;;;13.70;99.90;;;;;;5053712;28;20537;-72
2022/07/09 03:21:57;;;;;;;0.40;0.40;;;13.80;99.90;;;;;;5055545;28;20467;-71
2022/07/09 03:24:45;;;;;;;0.40;0.40;;;13.80;99.90;;;;;;5055392;28;20666;-70
2022/07/09 03:27:35;;;;;;;3.43;1.33;;;13.80;99.90;;;;;;5055494;28;20459;-70
2022/07/09 03:30:23;;;;;;;0.50;0.50;;;13.80;99.90;;;;;;5055039;28;20431;-71
2022/07/09 03:33:11;;;;;;;0.57;0.57;;;13.80;99.90;;;;;;5055345;28;20435;-70
2022/07/09 03:36:01;;;;;;;1.13;0.80;;;13.90;99.90;;;;;;5055406;28;20435;-71
2022/07/09 03:38:49;;;;;;;0.50;0.50;;;13.80;99.90;;;;;;5055142;28;20981;-70
2022/07/09 03:41:37;;;;;;;0.63;0.63;;;13.90;99.90;;;;;;5055805;28;20468;-71
2022/07/09 03:44:25;;;;;;;0.40;0.40;;;13.80;99.90;;;;;;5055892;28;20523;-71
2022/07/09 03:47:14;;;;;;;0.40;0.40;;;13.90;99.90;;;;;;5056052;28;20822;-70
2022/07/09 03:50:02;;;;;;;0.50;0.50;;;13.90;99.90;;;;;;5054736;28;20841;-70
2022/07/09 03:52:51;;;;;;;0.70;0.70;;;13.80;99.90;;;;;;5055039;28;20431;-71
2022/07/09 03:55:40;;;;;;;0.70;0.70;;;13.90;99.90;;;;;;5055217;28;20837;-70
2022/07/09 03:58:28;;;;;;;0.40;0.40;;;13.90;99.90;;;;;;5054574;28;20440;-71
2022/07/09 04:01:16;;;;;;;0.40;0.40;;;14.00;99.90;;;;;;5054770;28;20468;-71
2022/07/09 04:04:04;;;;;;;0.50;0.50;;;14.00;99.90;;;;;;5055451;28;20435;-71
2022/07/09 04:06:54;;;;;;;0.40;0.40;;;14.00;99.90;;;;;;5055280;28;20477;-71
2022/07/09 04:09:44;;;;;;;0.40;0.40;;;14.00;99.90;;;;;;5055328;28;20438;-71
2022/07/09 04:12:32;;;;;;;0.60;0.60;;;14.10;99.90;;;;;;5054721;28;20531;-70
2022/07/09 04:15:21;;;;;;;0.40;0.40;;;14.10;99.90;;;;;;5058273;28;20429;-71
2022/07/09 04:18:09;;;;;;;0.40;0.40;;;14.20;99.90;;;;;;5070695;28;20460;-69
2022/07/09 04:20:57;;;;;;;4.70;1.27;;;14.30;99.90;;;;;;5071061;28;20468;-72
2022/07/09 04:23:45;;;;;;;0.60;0.60;;;14.30;99.90;;;;;;5071707;28;20498;-72
2022/07/09 04:26:35;;;;;;;0.50;0.50;;;14.40;99.90;;;;;;5070430;28;20420;-74
2022/07/09 04:29:24;;;;;;;0.50;0.50;;;15.40;99.90;;;;;;5071534;28;20448;-73
2022/07/09 04:32:12;;;;;;;0.60;0.60;;;14.40;99.90;;;;;;5073019;28;20424;-72
2022/07/09 04:35:00;;;;;;;0.40;0.40;;;14.40;99.90;;;;;;5072912;28;20439;-71
2022/07/09 04:37:49;;;;;;;0.40;0.40;;;14.40;99.90;;;;;;5071229;28;20452;-72
2022/07/09 04:40:38;;;;;;;0.60;0.60;;;14.50;99.90;;;;;;5071381;28;20443;-71
2022/07/09 04:43:27;;;;;;;0.50;0.50;;;14.50;99.90;;;;;;5065827;28;20420;-72
2022/07/09 04:46:17;;;;;;;0.40;0.40;;;14.50;99.90;;;;;;5054446;28;20235;-71
2022/07/09 04:49:05;;;;;;;0.77;0.77;;;14.50;99.90;;;;;;5053396;28;20506;-71
2022/07/09 04:51:53;;;;;;;0.60;0.60;;;14.50;99.90;;;;;;5055931;28;20800;-70
2022/07/09 04:54:41;;;;;;;1.17;0.97;;;14.60;99.90;;;;;;5055903;28;20416;-72
2022/07/09 04:57:29;;;;;;;0.80;0.80;;;14.60;99.90;;;;;;5056360;28;21002;-71
2022/07/09 05:00:19;;;;;;;7.70;2.50;;;14.70;99.90;;;;;;5057143;28;20960;-71
2022/07/09 05:03:07;;;;;;;0.60;0.53;;;14.70;99.90;;;;;;5055966;28;20201;-72
2022/07/09 05:05:55;;;;;;;0.50;0.50;;;14.70;99.90;;;;;;5056270;28;20550;-71
2022/07/09 05:08:44;;;;;;;0.40;0.40;;;14.90;99.90;;;;;;5056497;28;20448;-71
2022/07/09 05:11:32;;;;;;;0.40;0.40;;;14.90;99.90;;;;;;5055709;28;20420;-71
2022/07/09 05:14:21;;;;;;;0.70;0.60;;;14.80;99.90;;;;;;5055621;28;20205;-72
2022/07/09 05:17:11;;;;;;;0.40;0.40;;;14.70;99.90;;;;;;5055726;28;20432;-74
2022/07/09 05:19:59;;;;;;;0.40;0.40;;;14.60;99.90;;;;;;5054736;28;20554;-72
2022/07/09 05:22:48;;;;;;;0.40;0.40;;;14.70;99.90;;;;;;5055473;28;20460;-72
2022/07/09 05:25:36;;;;;;;0.40;0.40;;;14.90;99.90;;;;;;5055406;28;20490;-69
2022/07/09 05:28:24;;;;;;;0.40;0.40;;;14.90;99.90;;;;;;5053925;28;20838;-71
2022/07/09 05:31:12;;;;;;;0.90;0.70;;;15.20;99.90;;;;;;5054661;28;20423;-70
2022/07/09 05:34:21;;;;;;;0.43;0.43;;;15.20;99.90;;;;;;5055017;28;20428;-70
2022/07/09 05:37:10;;;;;;;0.60;0.60;;;15.30;99.90;;;;;;5055748;28;20432;-71
2022/07/09 05:40:05;;;;;;;0.80;0.70;;;15.30;99.90;;;;;;5054760;28;20428;-70
2022/07/09 05:42:53;;;;;;;0.50;0.50;;;15.30;99.90;;;;;;5055189;28;20463;-74
2022/07/09 05:45:42;;;;;;;0.50;0.50;;;15.20;99.90;;;;;;5054621;28;20431;-70
2022/07/09 05:48:30;;;;;;;0.40;0.40;;;15.50;99.90;;;;;;5053729;28;20444;-71
2022/07/09 05:51:20;;;;;;;0.40;0.40;;;15.50;99.90;;;;;;5054194;28;20424;-70
2022/07/09 05:54:08;;;;;;;0.40;0.40;;;15.60;99.90;;;;;;5053684;28;20431;-71
2022/07/09 05:56:56;;;;;;;0.50;0.50;;;15.70;99.90;;;;;;5053464;28;20968;-72
2022/07/09 05:59:44;;;;;;;0.40;0.40;;;16.00;99.90;;;;;;5053874;28;20447;-73
2022/07/09 06:02:32;;;;;;;0.50;0.50;;;16.20;99.90;;;;;;5046921;28;20221;-71
2022/07/09 06:05:21;;;;;;;0.40;0.40;;;16.30;99.90;;;;;;5053026;28;20632;-72
2022/07/09 06:08:10;;;;;;;1.47;0.80;;;16.20;99.90;;;;;;5053674;28;20221;-73
2022/07/09 06:10:58;;;;;;;0.40;0.40;;;16.50;99.90;;;;;;5050533;28;20932;-73
2022/07/09 06:13:47;;;;;;;0.60;0.60;;;16.70;99.90;;;;;;5051751;28;20213;-71
2022/07/09 06:16:35;;;;;;;1.57;1.47;;;16.70;99.90;;;;;;5051866;28;20201;-71
2022/07/09 06:19:24;;;;;;;0.60;0.60;;;16.50;99.90;;;;;;5051085;28;20225;-70
2022/07/09 06:22:12;;;;;;;0.70;0.70;;;16.50;99.90;;;;;;5032089;28;20226;-72
2022/07/09 06:25:02;;;;;;;0.50;0.50;;;16.60;99.90;;;;;;5032458;28;20421;-72
2022/07/09 06:27:50;;;;;;;0.60;0.60;;;16.50;99.90;;;;;;5032389;28;20448;-70
2022/07/09 06:30:38;;;;;;;0.50;0.50;;;16.40;99.90;;;;;;5033857;28;20217;-71
2022/07/09 06:33:26;;;;;;;0.40;0.40;;;16.30;99.90;;;;;;5032925;28;20202;-71
2022/07/09 06:36:14;;;;;;;0.50;0.50;;;16.40;99.90;;;;;;5033274;28;20597;-71
2022/07/09 06:42:10;;;;;;;0.40;0.40;;;16.60;99.90;;;;;;5032513;28;20248;-71
2022/07/09 06:44:58;;;;;;;1.23;1.23;;;16.90;99.90;;;;;;5031269;28;20666;-74
2022/07/09 06:47:46;;;;;;;0.60;0.60;;;17.30;99.90;;;;;;5031471;28;20241;-72
2022/07/09 06:50:34;;;;;;;0.40;0.40;;;17.60;99.90;;;;;;5030510;28;20217;-71
2022/07/09 06:53:22;;;;;;;0.50;0.50;;;17.90;99.90;;;;;;5032265;28;20194;-74
2022/07/09 06:56:10;;;;;;;0.40;0.40;;;18.10;99.90;;;;;;5036136;28;20202;-72
2022/07/09 06:58:59;;;;;;;0.50;0.50;;;18.20;99.90;;;;;;5053604;28;20701;-73
2022/07/09 07:01:47;;;;;;;0.68;0.68;;;18.30;99.90;;;;;;5055687;28;20553;-73
2022/07/09 07:04:35;;;;;;;0.40;0.40;;;18.00;99.90;;;;;;5068272;28;20201;-72
2022/07/09 07:07:24;;;;;;;0.40;0.40;;;18.10;99.90;;;;;;5056980;28;20204;-72
2022/07/09 07:10:12;;;;;;;0.60;0.60;;;18.30;99.90;;;;;;5056314;28;20249;-74
2022/07/09 07:13:00;;;;;;;0.52;0.52;;;18.50;99.90;;;;;;5055381;28;20194;-76
2022/07/09 07:15:50;;;;;;;0.50;0.50;;;18.60;99.90;;;;;;5055194;28;20201;-73
2022/07/09 07:18:38;;;;;;;1.35;0.93;;;18.50;99.90;;;;;;5055153;28;20232;-74
2022/07/09 07:21:27;;;;;;;0.50;0.50;;;18.40;99.90;;;;;;5054414;28;20332;-74
2022/07/09 07:24:15;;;;;;;0.65;0.65;;;18.40;99.90;;;;;;5054883;28;20212;-75
2022/07/09 07:27:03;;;;;;;1.80;1.20;;;18.50;99.90;;;;;;5054391;28;20208;-73
2022/07/09 07:29:51;;;;;;;0.50;0.50;;;18.40;99.90;;;;;;5055032;28;20243;-72
2022/07/09 07:32:41;;;;;;;0.40;0.40;;;18.10;99.90;;;;;;5054219;28;20197;-73
2022/07/09 07:35:29;;;;;;;0.50;0.50;;;18.20;99.90;;;;;;5055100;28;20201;-76
2022/07/09 07:38:17;;;;;;;0.82;0.70;;;18.20;99.90;;;;;;5053664;28;20660;-72
2022/07/09 07:41:05;;;;;;;0.47;0.47;;;18.20;99.90;;;;;;5054428;28;20243;-72
2022/07/09 07:43:54;;;;;;;0.40;0.40;;;18.30;99.90;;;;;;5054937;28;20595;-72
2022/07/09 07:46:42;;;;;;;1.85;1.08;;;18.50;99.90;;;;;;5055471;28;20283;-73
2022/07/09 07:49:31;;;;;;;0.50;0.50;;;18.60;99.90;;;;;;5054649;28;20258;-75
2022/07/09 07:52:19;;;;;;;0.40;0.40;;;18.50;99.90;;;;;;5054552;28;20190;-72
2022/07/09 07:55:08;;;;;;;0.40;0.40;;;18.20;99.90;;;;;;5053003;28;20210;-71
2022/07/09 07:57:56;;;;;;;0.60;0.50;;;18.50;99.90;;;;;;5038982;28;20218;-72
2022/07/09 08:00:44;;;;;;;0.60;0.60;;;18.50;99.90;;;;;;5034370;28;20584;-72
2022/07/09 08:03:33;;;;;;;0.82;0.82;;;18.70;99.90;;;;;;5033875;28;20289;-72
2022/07/09 08:06:23;;;;;;;0.40;0.40;;;18.70;99.90;;;;;;5032238;28;20198;-74
2022/07/09 08:09:11;;;;;;;0.63;0.63;;;18.80;99.90;;;;;;5033707;28;20609;-74
2022/07/09 08:12:00;;;;;;;0.40;0.40;;;18.90;99.90;;;;;;5034942;28;20205;-72
2022/07/09 08:14:48;;;;;;;0.65;0.65;;;18.70;99.90;;;;;;5054211;28;20678;-72
2022/07/09 08:17:36;;;;;;;0.80;0.60;;;18.40;99.90;;;;;;5053616;28;20745;-73
2022/07/09 08:20:24;;;;;;;0.88;0.88;;;18.30;99.90;;;;;;5054298;28;20614;-72
2022/07/09 08:23:13;;;;;;;0.47;0.47;;;18.20;99.90;;;;;;5044782;28;20221;-72
2022/07/09 08:26:01;;;;;;;0.60;0.50;;;18.30;99.90;;;;;;5033534;28;20675;-73
2022/07/09 08:28:49;;;;;;;0.65;0.65;;;18.40;99.90;;;;;;5033253;28;20245;-72
2022/07/09 08:31:37;;;;;;;0.85;0.85;;;18.80;99.90;;;;;;5033457;28;20202;-76
2022/07/09 08:34:26;;;;;;;0.40;0.40;;;18.90;99.90;;;;;;5033863;28;20320;-71
2022/07/09 08:37:14;;;;;;;0.40;0.40;;;19.30;99.90;;;;;;5032714;28;20199;-72
2022/07/09 08:40:04;;;;;;;0.40;0.40;;;19.40;99.90;;;;;;5032953;28;20581;-74
2022/07/09 08:42:54;;;;;;;0.55;0.55;;;19.80;99.90;;;;;;5034912;28;20218;-74
2022/07/09 08:45:44;;;;;;;0.40;0.40;;;19.70;99.90;;;;;;5033666;28;20557;-74
2022/07/09 08:48:34;;;;;;;0.40;0.40;;;19.60;99.90;;;;;;5032976;28;20291;-71
2022/07/09 08:51:24;;;;;;;0.50;0.50;;;19.70;99.90;;;;;;5033560;28;20663;-70
2022/07/09 08:54:14;;;;;;;0.70;0.70;;;19.70;99.90;;;;;;5033635;28;20721;-75
2022/07/09 08:57:04;;;;;;;0.70;0.60;;;19.70;99.90;;;;;;5042141;28;20204;-76
2022/07/09 08:59:52;;;;;;;2.58;1.38;;;19.50;99.90;;;;;;5052951;28;20212;-79
2022/07/09 09:02:40;;;;;;;0.90;0.90;;;19.80;99.90;;;;;;5054291;28;20201;-78
2022/07/09 09:05:29;;;;;;;1.90;1.25;;;19.90;99.90;;;;;;5053502;28;20213;-76
2022/07/09 09:08:22;;;;;;;0.52;0.52;;;19.80;99.90;;;;;;5076247;28;20217;-73
2022/07/09 09:11:15;;;;;;;0.40;0.40;;;19.40;99.90;;;;;;5055294;28;20197;-75
2022/07/09 09:14:05;;;;;;;0.50;0.50;;;19.30;99.90;;;;;;5055559;28;20547;-76
2022/07/09 09:16:53;;;;;;;0.50;0.50;;;19.30;99.90;;;;;;5054665;28;20193;-78
2022/07/09 09:19:42;;;;;;;0.40;0.40;;;19.20;99.90;;;;;;5052382;28;20697;-70
2022/07/09 09:22:30;;;;;;;0.70;0.70;;;19.30;99.90;;;;;;5052231;28;20228;-74
2022/07/09 09:25:19;;;;;;;0.50;0.50;;;19.50;99.90;;;;;;5052977;28;20674;-77
2022/07/09 09:28:08;;;;;;;0.52;0.52;;;19.30;99.90;;;;;;5052614;28;20221;-73
2022/07/09 09:30:57;;;;;;;0.55;0.55;;;19.00;99.90;;;;;;5052474;28;20621;-71
2022/07/09 09:33:46;;;;;;;1.30;0.95;;;19.10;99.90;;;;;;5052308;28;20269;-73
2022/07/09 09:36:36;;;;;;;0.40;0.40;;;19.20;99.90;;;;;;5052900;28;20267;-72
2022/07/09 09:39:30;;;;;;;1.48;1.45;;;19.30;99.90;;;;;;5051962;28;20221;-71
2022/07/09 09:42:19;;;;;;;0.50;0.50;;;19.50;99.90;;;;;;5052555;28;20227;-74
2022/07/09 09:45:08;;;;;;;0.40;0.40;;;19.70;99.90;;;;;;5053200;28;20697;-72
2022/07/09 09:48:00;;;;;;;0.50;0.50;;;20.10;99.90;;;;;;5052944;28;20236;-72
2022/07/09 09:50:49;;;;;;;1.00;0.90;;;20.20;99.90;;;;;;5050766;28;20228;-74
2022/07/09 09:53:38;;;;;;;0.40;0.40;;;20.10;99.90;;;;;;5052461;28;20198;-74
2022/07/09 09:56:28;;;;;;;0.70;0.70;;;20.10;99.90;;;;;;5049263;28;20686;-71
2022/07/09 09:59:17;;;;;;;2.13;1.17;;;20.20;99.90;;;;;;5032193;28;20590;-71
2022/07/09 10:02:06;;;;;;;1.00;0.98;;;20.30;99.90;;;;;;5030610;28;20205;-72
2022/07/09 10:04:58;;;;;;;0.60;0.60;;;20.30;99.90;;;;;;5030853;28;20254;-74
2022/07/09 10:07:46;;;;;;;1.17;0.75;;;20.40;99.90;;;;;;5032755;28;20268;-71
2022/07/09 10:10:34;;;;;;;7.43;1.33;;;20.70;99.90;;;;;;5031438;28;20231;-76
2022/07/09 10:13:22;;;;;;;0.85;0.70;;;20.70;99.90;;;;;;5032180;28;20202;-75
2022/07/09 10:16:10;;;;;;;0.50;0.50;;;21.10;99.90;;;;;;5032255;28;20205;-73
2022/07/09 10:18:59;;;;;;;3.38;1.15;;;21.30;99.90;;;;;;5030627;28;20226;-75
2022/07/09 10:21:53;;;;;;;0.65;0.65;;;21.30;99.90;;;;;;5031875;28;20233;-75
2022/07/09 10:24:45;;;;;;;0.70;0.70;;;21.30;99.90;;;;;;5031808;28;20218;-74
2022/07/09 10:27:42;;;;;;;0.40;0.40;;;21.20;99.90;;;;;;5031666;28;20641;-74
2022/07/09 10:30:32;;;;;;;0.47;0.47;;;21.40;99.90;;;;;;5031395;28;20198;-75
2022/07/09 10:33:23;;;;;;;0.50;0.50;;;21.80;99.90;;;;;;5032572;28;20244;-72
2022/07/09 10:36:15;;;;;;;0.40;0.40;;;22.00;99.90;;;;;;5033518;28;20194;-80
2022/07/09 10:39:13;;;;;;;0.50;0.50;;;21.80;99.90;;;;;;5031951;28;20699;-74
2022/07/09 10:42:02;;;;;;;1.85;1.35;;;22.00;99.90;;;;;;5032908;28;20213;-76
2022/07/09 10:44:51;;;;;;;3.47;0.70;;;22.10;99.90;;;;;;5033416;28;20279;-77
2022/07/09 10:47:39;;;;;;;0.50;0.50;;;22.00;99.90;;;;;;5033906;28;20302;-75
2022/07/09 10:50:28;;;;;;;0.77;0.77;;;22.00;99.90;;;;;;5033580;28;20271;-77
2022/07/09 10:53:17;;;;;;;1.70;0.75;;;21.90;99.90;;;;;;5035282;28;20256;-77
2022/07/09 10:56:08;;;;;;;2.58;0.77;;;21.90;99.90;;;;;;5054894;28;20265;-73
2022/07/09 10:58:56;;;;;;;0.40;0.40;;;21.70;99.90;;;;;;5074174;28;20205;-73
2022/07/09 11:01:44;;;;;;;1.00;0.75;;;21.80;99.90;;;;;;5075367;28;20205;-72
2022/07/09 11:04:34;;;;;;;0.40;0.40;;;22.20;99.90;;;;;;5074950;28;20239;-71
2022/07/09 11:07:23;;;;;;;0.40;0.40;;;22.30;99.90;;;;;;5074527;28;20251;-74
2022/07/09 11:10:20;;;;;;;0.52;0.52;;;22.20;99.90;;;;;;5072320;28;20239;-70
2022/07/09 11:13:09;;;;;;;0.40;0.40;;;22.20;99.90;;;;;;5068924;28;20220;-75
2022/07/09 11:16:01;;;;;;;0.40;0.40;;;22.10;99.90;;;;;;5074640;28;20252;-73
2022/07/09 11:18:50;;;;;;;0.57;0.57;;;22.30;99.90;;;;;;5073998;28;20275;-72
2022/07/09 11:21:38;;;;;;;0.50;0.50;;;22.20;99.90;;;;;;5072271;28;20236;-72
2022/07/09 11:24:26;;;;;;;1.13;1.00;;;22.20;99.90;;;;;;5069514;28;20214;-73
2022/07/09 11:27:14;;;;;;;0.40;0.40;;;22.20;99.90;;;;;;5062441;28;20239;-72
2022/07/09 11:30:04;;;;;;;1.15;0.90;;;22.70;99.90;;;;;;5067342;28;20212;-74
2022/07/09 11:32:52;;;;;;;0.70;0.70;;;23.00;99.90;;;;;;5050952;28;20205;-73
2022/07/09 11:35:45;;;;;;;2.80;1.00;;;23.00;99.90;;;;;;5054846;28;20208;-78
2022/07/09 11:38:33;;;;;;;0.50;0.50;;;22.40;99.90;;;;;;5054639;28;20248;-76
2022/07/09 11:41:21;;;;;;;0.50;0.40;;;22.10;99.90;;;;;;5076630;28;20197;-75
2022/07/09 11:44:09;;;;;;;0.40;0.40;;;22.00;99.90;;;;;;5069460;28;20622;-74
2022/07/09 11:47:04;;;;;;;0.50;0.50;;;22.10;99.90;;;;;;5065949;28;20198;-75
2022/07/09 11:49:52;;;;;;;0.40;0.40;;;22.20;99.90;;;;;;5059338;28;20205;-72
2022/07/09 11:52:45;;;;;;;0.52;0.52;;;22.30;99.90;;;;;;5059814;28;20689;-74
2022/07/09 11:55:35;;;;;;;0.60;0.60;;;22.70;99.90;;;;;;5063269;28;20201;-74
2022/07/09 11:58:23;;;;;;;0.50;0.50;;;23.10;99.90;;;;;;5057727;28;20218;-74
2022/07/09 12:01:11;;;;;;;0.40;0.40;;;23.00;99.90;;;;;;5053879;28;20206;-74
2022/07/09 12:04:00;;;;;;;0.50;0.50;;;22.70;99.90;;;;;;5055997;28;20201;-74
2022/07/09 12:06:49;;;;;;;0.40;0.40;;;22.70;99.90;;;;;;5055520;28;20198;-74
2022/07/09 12:09:38;;;;;;;0.40;0.40;;;22.50;99.90;;;;;;5053934;28;20217;-79
2022/07/09 12:12:26;;;;;;;0.40;0.40;;;22.00;99.90;;;;;;5054285;28;20209;-77
2022/07/09 12:15:14;;;;;;;0.50;0.50;;;21.60;99.90;;;;;;5054260;28;20204;-82
2022/07/09 12:18:02;;;;;;;0.40;0.40;;;21.50;99.90;;;;;;5054133;28;20228;-78
2022/07/09 12:20:52;;;;;;;7.10;0.60;;;21.70;99.90;;;;;;5054712;28;20280;-77
2022/07/09 12:23:40;;;;;;;0.40;0.40;;;22.40;99.90;;;;;;5062698;28;20213;-74
2022/07/09 12:26:30;;;;;;;0.40;0.40;;;22.90;99.90;;;;;;5062691;28;20227;-75
2022/07/09 12:29:18;;;;;;;0.45;0.45;;;23.20;99.90;;;;;;5062686;28;20225;-78
2022/07/09 12:32:06;;;;;;;0.40;0.40;;;22.90;99.90;;;;;;5055146;28;20666;-76
2022/07/09 12:34:54;;;;;;;1.67;0.68;;;22.20;99.90;;;;;;5054283;28;20201;-76
2022/07/09 12:37:44;;;;;;;0.40;0.40;;;21.40;99.90;;;;;;5053333;28;20224;-82
2022/07/09 12:40:32;;;;;;;0.50;0.50;;;19.80;99.90;;;;;;5053769;28;20713;-79
2022/07/09 12:43:20;;;;;;;0.40;0.40;;;18.70;99.90;;;;;;5054163;28;20194;-81
2022/07/09 12:46:08;;;;;;;0.70;0.70;;;18.20;99.90;;;;;;5054058;28;20607;-85
2022/07/09 12:48:56;;;;;;;0.75;0.75;;;18.00;99.90;;;;;;5052384;28;20308;-81
2022/07/09 12:51:44;;;;;;;0.50;0.50;;;17.90;99.90;;;;;;5052177;28;20259;-79
2022/07/09 12:54:34;;;;;;;0.63;0.63;;;17.90;99.90;;;;;;5053619;28;20200;-83
2022/07/09 12:57:22;;;;;;;0.50;0.50;;;18.70;99.90;;;;;;5053435;28;20205;-83
2022/07/09 13:00:11;;;;;;;0.52;0.52;;;18.70;99.90;;;;;;5050433;28;20201;-74
2022/07/09 13:02:59;;;;;;;0.40;0.40;;;19.30;99.90;;;;;;5034553;28;20699;-82
2022/07/09 13:05:47;;;;;;;0.80;0.80;;;20.30;99.90;;;;;;5033207;28;20750;-84
2022/07/09 13:08:35;;;;;;;0.40;0.40;;;20.60;99.90;;;;;;5035205;28;20249;-78
2022/07/09 13:11:26;;;;;;;0.40;0.40;;;20.90;99.90;;;;;;5040278;28;20202;-75
2022/07/09 13:14:14;;;;;;;0.52;0.52;;;20.70;99.90;;;;;;5056118;28;20194;-80
2022/07/09 13:17:02;;;;;;;0.40;0.40;;;20.60;99.90;;;;;;5034615;28;20229;-82
2022/07/09 13:20:10;;;;;;;0.50;0.50;;;20.50;99.90;;;;;;5033737;28;20332;-80
2022/07/09 13:22:58;;;;;;;0.40;0.40;;;20.50;99.90;;;;;;5032441;28;20572;-77
2022/07/09 13:25:46;;;;;;;0.43;0.43;;;20.80;99.90;;;;;;5036213;28;20561;-75
2022/07/09 13:28:36;;;;;;;0.40;0.40;;;21.40;99.90;;;;;;5040267;28;20225;-78
2022/07/09 13:31:24;;;;;;;0.50;0.50;;;21.50;99.90;;;;;;5043006;28;20629;-77
2022/07/09 13:34:13;;;;;;;0.40;0.40;;;21.60;99.90;;;;;;5037180;28;20202;-76
2022/07/09 13:37:01;;;;;;;0.73;0.73;;;21.70;99.90;;;;;;5042465;28;20209;-75
2022/07/09 13:39:49;;;;;;;0.45;0.45;;;21.80;99.90;;;;;;5037269;28;20578;-76
2022/07/09 13:42:37;;;;;;;0.40;0.40;;;21.90;99.90;;;;;;5035266;28;20198;-75
2022/07/09 13:45:28;;;;;;;0.40;0.40;;;22.20;99.90;;;;;;5034277;28;20229;-76
2022/07/09 13:48:16;;;;;;;0.40;0.40;;;22.30;99.90;;;;;;5038907;28;20218;-73
2022/07/09 13:51:05;;;;;;;0.40;0.40;;;22.20;99.90;;;;;;5044485;28;20206;-76
2022/07/09 13:53:53;;;;;;;0.50;0.50;;;22.00;99.90;;;;;;5041565;28;20627;-76
2022/07/09 13:56:41;;;;;;;0.40;0.40;;;21.60;99.90;;;;;;5042380;28;20201;-74
2022/07/09 13:59:29;;;;;;;0.73;0.73;;;21.10;99.90;;;;;;5051543;28;20217;-80
2022/07/09 14:02:19;;;;;;;11.95;3.58;;;20.20;99.90;;;;;;5053941;28;20217;-74
2022/07/09 14:05:08;;;;;;;0.50;0.50;;;18.10;99.90;;;;;;5051899;28;20255;-75
2022/07/09 14:07:58;;;;;;;0.50;0.50;;;16.10;99.90;;;;;;5052883;28;20267;-75
2022/07/09 14:10:46;;;;;;;0.40;0.40;;;15.50;99.90;;;;;;5048460;28;20202;-74
2022/07/09 14:13:35;;;;;;;0.40;0.40;;;15.50;99.90;;;;;;5034546;28;20206;-76
2022/07/09 14:16:25;;;;;;;0.40;0.40;;;15.60;99.90;;;;;;5035222;28;20567;-76
2022/07/09 14:19:14;;;;;;;0.60;0.60;;;16.50;99.90;;;;;;5034772;28;20623;-76
2022/07/09 14:22:03;;;;;;;0.40;0.40;;;17.30;99.90;;;;;;5031782;28;20198;-80
2022/07/09 14:24:51;;;;;;;0.40;0.40;;;18.30;99.90;;;;;;5032716;28;20671;-76
2022/07/09 14:27:39;;;;;;;0.45;0.45;;;20.80;99.90;;;;;;5031453;28;20221;-78
2022/07/09 14:30:27;;;;;;;0.40;0.40;;;20.50;99.90;;;;;;5031329;28;20625;-78
2022/07/09 14:33:16;;;;;;;0.40;0.40;;;19.80;99.90;;;;;;5031862;28;20202;-78
2022/07/09 14:36:06;;;;;;;0.40;0.40;;;19.60;99.90;;;;;;5049437;28;20731;-77
2022/07/09 14:38:54;;;;;;;0.40;0.40;;;20.70;99.90;;;;;;5055525;28;20225;-77
2022/07/09 14:41:43;;;;;;;0.40;0.40;;;21.70;99.90;;;;;;5059101;28;21006;-77
2022/07/09 14:44:31;;;;;;;0.40;0.40;;;23.20;99.90;;;;;;5055510;28;20205;-77